Time;durP1;ratioP1;P1;durP2;ratioP2;P2;SDS_P1;SDS_P2;PMS_P1;PMS_P2;Temp;Humidity;BMP_temperature;BMP_pressure;BME280_temperature;BME280_humidity;BME280_pressure;Samples;Min_cycle;Max_cycle;Signal;HPM_P1;HPM_P2
2023/03/05 00:00:00;;;;;;;23.77;11.70;;;;;;;;;;5060490;28;20307;-68
2023/03/05 00:02:28;;;;;;;33.53;12.95;;;;;;;;;;5058565;28;20260;-69
2023/03/05 00:04:56;;;;;;;26.55;13.82;;;;;;;;;;5058777;28;20275;-68
2023/03/05 00:07:26;;;;;;;32.80;14.80;;;;;;;;;;5059841;28;20747;-68
2023/03/05 00:09:54;;;;;;;27.10;12.90;;;;;;;;;;5060994;28;20731;-68
2023/03/05 00:12:22;;;;;;;30.98;13.48;;;;;;;;;;5059988;28;20296;-68
2023/03/05 00:14:51;;;;;;;28.25;12.82;;;;;;;;;;5060306;28;20261;-68
2023/03/05 00:17:19;;;;;;;22.73;12.63;;;;;;;;;;5061908;28;20280;-68
2023/03/05 00:19:47;;;;;;;36.40;12.30;;;;;;;;;;5061773;28;20722;-68
2023/03/05 00:22:16;;;;;;;31.48;13.70;;;;;;;;;;5061037;28;20732;-68
2023/03/05 00:24:45;;;;;;;31.02;13.05;;;;;;;;;;5062479;28;20287;-68
2023/03/05 00:27:13;;;;;;;33.92;14.27;;;;;;;;;;5060177;28;20306;-68
2023/03/05 00:29:42;;;;;;;31.95;14.05;;;;;;;;;;5061908;28;20256;-68
2023/03/05 00:32:10;;;;;;;34.55;13.90;;;;;;;;;;5061379;28;20285;-68
2023/03/05 00:34:38;;;;;;;28.25;13.27;;;;;;;;;;5061802;28;20264;-68
2023/03/05 00:37:06;;;;;;;32.22;15.45;;;;;;;;;;5061358;28;20288;-68
2023/03/05 00:39:34;;;;;;;28.30;14.52;;;;;;;;;;5059657;28;20279;-68
2023/03/05 00:42:06;;;;;;;38.35;15.15;;;;;;;;;;5060030;28;20601;-69
2023/03/05 00:44:35;;;;;;;32.58;13.88;;;;;;;;;;5065529;28;20272;-69
2023/03/05 00:47:03;;;;;;;28.13;13.20;;;;;;;;;;5068478;28;20381;-68
2023/03/05 00:49:31;;;;;;;35.85;13.80;;;;;;;;;;5067424;28;20279;-68
2023/03/05 00:52:00;;;;;;;29.92;15.15;;;;;;;;;;5068600;28;20272;-68
2023/03/05 00:54:28;;;;;;;38.55;15.82;;;;;;;;;;5068419;28;20247;-68
2023/03/05 00:56:57;;;;;;;40.65;14.77;;;;;;;;;;5068355;28;20312;-68
2023/03/05 00:59:26;;;;;;;41.53;16.75;;;;;;;;;;5069437;28;20323;-69
2023/03/05 01:01:55;;;;;;;37.17;15.70;;;;;;;;;;5066942;28;20248;-68
2023/03/05 01:04:23;;;;;;;30.17;14.95;;;;;;;;;;5068920;28;20275;-68
2023/03/05 01:06:51;;;;;;;36.67;15.40;;;;;;;;;;5069619;28;20256;-68
2023/03/05 01:09:20;;;;;;;35.88;14.88;;;;;;;;;;5067810;28;20263;-66
2023/03/05 01:11:48;;;;;;;34.08;14.63;;;;;;;;;;5069855;28;20265;-68
2023/03/05 01:14:16;;;;;;;36.05;15.25;;;;;;;;;;5069649;28;20260;-68
2023/03/05 01:16:46;;;;;;;29.38;13.75;;;;;;;;;;5071076;28;20533;-68
2023/03/05 01:19:15;;;;;;;31.17;16.08;;;;;;;;;;5071622;28;20244;-68
2023/03/05 01:21:43;;;;;;;33.13;15.75;;;;;;;;;;5071568;28;20260;-68
2023/03/05 01:24:11;;;;;;;28.40;14.60;;;;;;;;;;5071732;28;20276;-68
2023/03/05 01:26:39;;;;;;;29.00;13.70;;;;;;;;;;5069684;28;20311;-68
2023/03/05 01:29:08;;;;;;;31.75;14.00;;;;;;;;;;5071380;28;20284;-68
2023/03/05 01:31:36;;;;;;;31.38;13.63;;;;;;;;;;5072701;28;20256;-69
2023/03/05 01:34:05;;;;;;;28.58;13.55;;;;;;;;;;5072663;28;20236;-68
2023/03/05 01:36:34;;;;;;;31.17;14.75;;;;;;;;;;5070300;28;20280;-68
2023/03/05 01:39:02;;;;;;;36.33;13.80;;;;;;;;;;5071942;28;20315;-68
2023/03/05 01:41:32;;;;;;;32.13;13.77;;;;;;;;;;5069647;28;20323;-67
2023/03/05 01:44:01;;;;;;;32.72;15.50;;;;;;;;;;5071325;28;20276;-68
2023/03/05 01:46:30;;;;;;;40.28;15.40;;;;;;;;;;5072378;28;20224;-68
2023/03/05 01:49:01;;;;;;;30.85;16.05;;;;;;;;;;5071588;28;20631;-69
2023/03/05 01:51:32;;;;;;;35.78;16.88;;;;;;;;;;5071013;28;20248;-68
2023/03/05 01:54:01;;;;;;;37.83;16.02;;;;;;;;;;5070838;28;20316;-68
2023/03/05 01:56:29;;;;;;;29.23;14.00;;;;;;;;;;5065911;28;20256;-68
2023/03/05 01:59:02;;;;;;;30.90;14.50;;;;;;;;;;5067910;28;20293;-67
2023/03/05 02:01:32;;;;;;;38.25;15.60;;;;;;;;;;5059916;28;20244;-68
2023/03/05 02:04:01;;;;;;;38.70;14.63;;;;;;;;;;5054599;28;20295;-66
2023/03/05 02:06:31;;;;;;;33.55;15.30;;;;;;;;;;5052661;28;20253;-67
2023/03/05 02:09:00;;;;;;;34.10;14.18;;;;;;;;;;5055782;28;20205;-66
2023/03/05 02:11:28;;;;;;;36.20;15.45;;;;;;;;;;5055316;28;20234;-67
2023/03/05 02:13:57;;;;;;;35.15;15.73;;;;;;;;;;5055824;28;20201;-67
2023/03/05 02:16:25;;;;;;;38.58;15.55;;;;;;;;;;5053858;28;20215;-66
2023/03/05 02:18:53;;;;;;;33.33;15.15;;;;;;;;;;5054374;28;20273;-67
2023/03/05 02:21:29;;;;;;;33.38;16.40;;;;;;;;;;5053388;28;20667;-67
2023/03/05 02:23:57;;;;;;;31.35;14.07;;;;;;;;;;5055369;28;20269;-68
2023/03/05 02:26:26;;;;;;;30.50;14.18;;;;;;;;;;5052930;28;20651;-67
2023/03/05 02:28:58;;;;;;;35.60;14.93;;;;;;;;;;5054768;28;20207;-68
2023/03/05 02:31:26;;;;;;;35.53;15.45;;;;;;;;;;5054301;28;20229;-67
2023/03/05 02:33:55;;;;;;;33.88;16.10;;;;;;;;;;5054377;28;20207;-65
2023/03/05 02:36:25;;;;;;;46.88;17.27;;;;;;;;;;5052989;28;20200;-65
2023/03/05 02:38:57;;;;;;;38.95;15.23;;;;;;;;;;5053894;28;20224;-67
2023/03/05 02:41:26;;;;;;;36.00;15.25;;;;;;;;;;5052943;28;20660;-67
2023/03/05 02:43:57;;;;;;;39.00;14.60;;;;;;;;;;5053349;28;20197;-65
2023/03/05 02:46:25;;;;;;;37.03;15.55;;;;;;;;;;5053732;28;20212;-65
2023/03/05 02:48:53;;;;;;;39.25;16.05;;;;;;;;;;5053652;28;20207;-65
2023/03/05 02:51:21;;;;;;;41.08;16.40;;;;;;;;;;5053190;28;20724;-66
2023/03/05 02:53:49;;;;;;;34.50;15.70;;;;;;;;;;5053766;28;20682;-66
2023/03/05 02:56:20;;;;;;;32.05;15.13;;;;;;;;;;5053740;28;20201;-66
2023/03/05 02:58:48;;;;;;;42.30;15.52;;;;;;;;;;5052970;28;20277;-66
2023/03/05 03:01:16;;;;;;;33.83;14.90;;;;;;;;;;5053577;28;20581;-66
2023/03/05 03:03:44;;;;;;;41.08;18.70;;;;;;;;;;5052732;28;20204;-66
2023/03/05 03:06:13;;;;;;;41.35;16.08;;;;;;;;;;5054118;28;20202;-66
2023/03/05 03:08:41;;;;;;;35.03;16.52;;;;;;;;;;5054859;28;20414;-66
2023/03/05 03:11:11;;;;;;;38.13;17.48;;;;;;;;;;5051901;28;20200;-66
2023/03/05 03:13:41;;;;;;;40.88;16.38;;;;;;;;;;5054589;28;20604;-66
2023/03/05 03:16:10;;;;;;;37.50;16.20;;;;;;;;;;5054701;28;20730;-66
2023/03/05 03:18:39;;;;;;;43.30;17.13;;;;;;;;;;5054659;28;20330;-66
2023/03/05 03:21:07;;;;;;;32.85;16.48;;;;;;;;;;5054440;28;20196;-66
2023/03/05 03:23:36;;;;;;;41.28;17.05;;;;;;;;;;5054477;28;20220;-66
2023/03/05 03:26:04;;;;;;;32.15;15.60;;;;;;;;;;5052899;28;20204;-66
2023/03/05 03:28:32;;;;;;;38.47;15.70;;;;;;;;;;5053035;28;20257;-66
2023/03/05 03:31:02;;;;;;;37.85;15.70;;;;;;;;;;5050893;28;20228;-66
2023/03/05 03:33:30;;;;;;;37.20;15.95;;;;;;;;;;5051420;28;20207;-66
2023/03/05 03:35:58;;;;;;;34.83;17.27;;;;;;;;;;5050248;28;20207;-66
2023/03/05 03:38:26;;;;;;;41.50;16.35;;;;;;;;;;5053592;28;20229;-66
2023/03/05 03:40:54;;;;;;;43.78;17.20;;;;;;;;;;5052708;28;20211;-66
2023/03/05 03:43:23;;;;;;;40.63;15.57;;;;;;;;;;5053562;28;20219;-66
2023/03/05 03:45:51;;;;;;;51.72;18.25;;;;;;;;;;5052699;28;20207;-66
2023/03/05 03:48:20;;;;;;;37.60;15.52;;;;;;;;;;5053326;28;20215;-66
2023/03/05 03:50:49;;;;;;;41.20;17.35;;;;;;;;;;5053340;28;20196;-66
2023/03/05 03:53:17;;;;;;;33.72;15.18;;;;;;;;;;5053521;28;20204;-67
2023/03/05 03:55:46;;;;;;;43.92;16.73;;;;;;;;;;5052897;28;20631;-67
2023/03/05 03:58:14;;;;;;;39.42;16.90;;;;;;;;;;5053410;28;20220;-67
2023/03/05 04:00:42;;;;;;;38.38;16.80;;;;;;;;;;5052571;28;20215;-68
2023/03/05 04:03:11;;;;;;;43.75;17.73;;;;;;;;;;5052199;28;20197;-67
2023/03/05 04:05:40;;;;;;;38.03;16.85;;;;;;;;;;5052505;28;20676;-67
2023/03/05 04:08:10;;;;;;;38.63;17.92;;;;;;;;;;5052972;28;20203;-67
2023/03/05 04:10:39;;;;;;;43.53;18.25;;;;;;;;;;5052827;28;20195;-68
2023/03/05 04:13:07;;;;;;;47.10;16.65;;;;;;;;;;5052194;28;20197;-67
2023/03/05 04:15:35;;;;;;;35.88;16.25;;;;;;;;;;5052355;28;20212;-67
2023/03/05 04:18:03;;;;;;;36.47;15.98;;;;;;;;;;5051627;28;20537;-67
2023/03/05 04:20:32;;;;;;;37.03;16.00;;;;;;;;;;5052912;28;20196;-67
2023/03/05 04:23:01;;;;;;;41.90;17.83;;;;;;;;;;5052609;28;20221;-68
2023/03/05 04:25:29;;;;;;;38.80;17.02;;;;;;;;;;5051555;28;20205;-67
2023/03/05 04:27:57;;;;;;;38.67;17.45;;;;;;;;;;5051715;28;20204;-68
2023/03/05 04:30:26;;;;;;;41.00;16.90;;;;;;;;;;5051795;28;20568;-67
2023/03/05 04:32:54;;;;;;;37.72;16.40;;;;;;;;;;5051977;28;20211;-67
2023/03/05 04:35:22;;;;;;;33.10;15.93;;;;;;;;;;5052721;28;20203;-67
2023/03/05 04:37:50;;;;;;;36.53;15.75;;;;;;;;;;5052420;28;20204;-68
2023/03/05 04:40:20;;;;;;;37.63;16.85;;;;;;;;;;5052621;28;20219;-68
2023/03/05 04:42:48;;;;;;;36.10;17.45;;;;;;;;;;5051184;28;20205;-67
2023/03/05 04:45:17;;;;;;;35.47;16.33;;;;;;;;;;5052307;28;20197;-67
2023/03/05 04:47:45;;;;;;;41.38;15.15;;;;;;;;;;5052538;28;20222;-67
2023/03/05 04:50:14;;;;;;;42.50;16.40;;;;;;;;;;5052607;28;20563;-66
2023/03/05 04:52:43;;;;;;;37.42;15.65;;;;;;;;;;5052496;28;20557;-66
2023/03/05 04:55:12;;;;;;;34.40;15.13;;;;;;;;;;5051649;28;20269;-68
2023/03/05 04:57:42;;;;;;;30.73;15.98;;;;;;;;;;5052285;28;20228;-67
2023/03/05 05:00:13;;;;;;;39.90;15.43;;;;;;;;;;5052744;28;20553;-67
2023/03/05 05:02:41;;;;;;;34.78;17.00;;;;;;;;;;5050814;28;20230;-67
2023/03/05 05:05:10;;;;;;;30.42;15.23;;;;;;;;;;5051464;28;20193;-67
2023/03/05 05:07:38;;;;;;;36.13;15.40;;;;;;;;;;5050880;28;20208;-68
2023/03/05 05:10:07;;;;;;;36.63;14.60;;;;;;;;;;5051482;28;20195;-67
2023/03/05 05:12:35;;;;;;;40.47;16.45;;;;;;;;;;5051805;28;20586;-67
2023/03/05 05:15:07;;;;;;;43.78;17.38;;;;;;;;;;5053112;28;20193;-67
2023/03/05 05:17:35;;;;;;;40.53;16.10;;;;;;;;;;5054148;28;20695;-71
2023/03/05 05:20:05;;;;;;;36.83;16.23;;;;;;;;;;5053484;28;20629;-68
2023/03/05 05:22:33;;;;;;;37.65;16.95;;;;;;;;;;5053733;28;20281;-67
2023/03/05 05:25:01;;;;;;;44.05;16.77;;;;;;;;;;5052813;28;20660;-67
2023/03/05 05:27:30;;;;;;;44.17;18.15;;;;;;;;;;5054079;28;20208;-67
2023/03/05 05:29:58;;;;;;;38.22;19.70;;;;;;;;;;5053569;28;20201;-67
2023/03/05 05:32:33;;;;;;;49.47;23.90;;;;;;;;;;5056255;28;20200;-66
2023/03/05 05:35:02;;;;;;;60.78;36.00;;;;;;;;;;5056053;28;20211;-67
2023/03/05 05:37:30;;;;;;;209.23;107.15;;;;;;;;;;5056104;28;20215;-68
2023/03/05 05:39:59;;;;;;;50.78;24.27;;;;;;;;;;5055786;28;20586;-68
2023/03/05 05:42:28;;;;;;;109.38;47.13;;;;;;;;;;5055694;28;20200;-68
2023/03/05 05:44:58;;;;;;;178.60;75.55;;;;;;;;;;5055382;28;20201;-68
2023/03/05 05:47:28;;;;;;;227.23;94.78;;;;;;;;;;5054713;28;20296;-65
2023/03/05 05:49:56;;;;;;;56.22;29.13;;;;;;;;;;5054456;28;20197;-66
2023/03/05 05:52:24;;;;;;;45.50;19.00;;;;;;;;;;5055187;28;20597;-66
2023/03/05 05:54:53;;;;;;;36.40;18.25;;;;;;;;;;5053967;28;20208;-67
2023/03/05 05:57:21;;;;;;;41.35;20.10;;;;;;;;;;5055410;28;20213;-66
2023/03/05 05:59:49;;;;;;;41.55;16.48;;;;;;;;;;5054925;28;20216;-66
2023/03/05 06:02:17;;;;;;;39.78;15.30;;;;;;;;;;5053297;28;20917;-66
2023/03/05 06:04:47;;;;;;;38.72;14.73;;;;;;;;;;5054140;28;20608;-66
2023/03/05 06:07:15;;;;;;;34.55;16.05;;;;;;;;;;5053466;28;20560;-66
2023/03/05 06:09:43;;;;;;;38.78;16.83;;;;;;;;;;5043465;28;20204;-66
2023/03/05 06:12:11;;;;;;;38.25;16.25;;;;;;;;;;5053920;28;20203;-66
2023/03/05 06:14:40;;;;;;;35.60;15.93;;;;;;;;;;5057320;28;20201;-66
2023/03/05 06:17:08;;;;;;;39.03;17.58;;;;;;;;;;5055469;28;20204;-66
2023/03/05 06:19:36;;;;;;;27.73;13.80;;;;;;;;;;5057175;28;20282;-66
2023/03/05 06:22:06;;;;;;;34.85;16.73;;;;;;;;;;5055507;28;20204;-66
2023/03/05 06:24:34;;;;;;;38.28;15.05;;;;;;;;;;5056318;28;20212;-66
2023/03/05 06:27:02;;;;;;;33.03;15.20;;;;;;;;;;5055208;28;20205;-67
2023/03/05 06:29:30;;;;;;;31.45;15.50;;;;;;;;;;5055365;28;20273;-66
2023/03/05 06:31:59;;;;;;;33.50;14.65;;;;;;;;;;5054428;28;20905;-66
2023/03/05 06:34:28;;;;;;;34.40;17.05;;;;;;;;;;5055081;28;20610;-67
2023/03/05 06:36:56;;;;;;;35.17;15.43;;;;;;;;;;5054450;28;20204;-66
2023/03/05 06:39:26;;;;;;;34.72;14.45;;;;;;;;;;5054784;28;20212;-67
2023/03/05 06:41:54;;;;;;;32.50;15.20;;;;;;;;;;5053593;28;20240;-67
2023/03/05 06:44:22;;;;;;;38.85;17.75;;;;;;;;;;5053496;28;20326;-67
2023/03/05 06:46:50;;;;;;;35.65;16.27;;;;;;;;;;5053328;28;20211;-68
2023/03/05 06:49:18;;;;;;;34.22;16.08;;;;;;;;;;5054506;28;20675;-67
2023/03/05 06:51:47;;;;;;;32.25;17.10;;;;;;;;;;5055165;28;20214;-67
2023/03/05 06:54:16;;;;;;;37.53;16.10;;;;;;;;;;5055067;28;20201;-67
2023/03/05 06:56:46;;;;;;;41.58;17.20;;;;;;;;;;5055634;28;20736;-66
2023/03/05 06:59:16;;;;;;;34.20;15.95;;;;;;;;;;5048139;28;20974;-67
2023/03/05 07:01:44;;;;;;;32.28;15.85;;;;;;;;;;5053890;28;20203;-67
2023/03/05 07:04:12;;;;;;;37.30;17.05;;;;;;;;;;5051661;28;20196;-66
2023/03/05 07:06:41;;;;;;;32.95;16.70;;;;;;;;;;5052116;28;20197;-67
2023/03/05 07:09:11;;;;;;;39.55;16.23;;;;;;;;;;5052170;28;20203;-68
2023/03/05 07:11:39;;;;;;;30.60;16.65;;;;;;;;;;5052222;28;20207;-67
2023/03/05 07:14:09;;;;;;;33.40;15.55;;;;;;;;;;5051021;28;20219;-67
2023/03/05 07:16:37;;;;;;;35.97;16.90;;;;;;;;;;5051362;28;20581;-67
2023/03/05 07:19:06;;;;;;;35.13;16.15;;;;;;;;;;5051300;28;20197;-67
2023/03/05 07:21:35;;;;;;;32.53;16.83;;;;;;;;;;5054134;28;20236;-68
2023/03/05 07:24:04;;;;;;;41.03;17.20;;;;;;;;;;5061572;28;20215;-67
2023/03/05 07:26:33;;;;;;;41.13;16.25;;;;;;;;;;5063752;28;20206;-67
2023/03/05 07:29:01;;;;;;;32.10;16.92;;;;;;;;;;5067621;28;20577;-67
2023/03/05 07:31:31;;;;;;;30.92;15.70;;;;;;;;;;5072981;28;20690;-67
2023/03/05 07:34:00;;;;;;;33.75;16.55;;;;;;;;;;5060087;28;20269;-67
2023/03/05 07:36:28;;;;;;;29.58;15.15;;;;;;;;;;5064424;28;20723;-67
2023/03/05 07:38:56;;;;;;;31.02;16.63;;;;;;;;;;5073353;28;20573;-67
2023/03/05 07:41:25;;;;;;;34.42;15.77;;;;;;;;;;5069213;28;20216;-67
2023/03/05 07:43:54;;;;;;;36.15;16.58;;;;;;;;;;5065390;28;20204;-67
2023/03/05 07:46:24;;;;;;;38.97;17.48;;;;;;;;;;5047095;28;20627;-67
2023/03/05 07:48:54;;;;;;;33.65;15.95;;;;;;;;;;5067114;28;20203;-67
2023/03/05 07:51:23;;;;;;;36.10;16.20;;;;;;;;;;5063301;28;20204;-67
2023/03/05 07:53:52;;;;;;;26.10;14.52;;;;;;;;;;5068927;28;20637;-67
2023/03/05 07:56:23;;;;;;;32.70;16.38;;;;;;;;;;5050638;28;20451;-69
2023/03/05 07:58:51;;;;;;;29.23;14.30;;;;;;;;;;5049173;28;20572;-67
2023/03/05 08:01:20;;;;;;;32.58;16.77;;;;;;;;;;5069387;28;20223;-67
2023/03/05 08:03:48;;;;;;;32.55;14.50;;;;;;;;;;5059453;28;20209;-67
2023/03/05 08:06:18;;;;;;;30.83;16.05;;;;;;;;;;5050789;28;20196;-67
2023/03/05 08:08:46;;;;;;;31.40;16.63;;;;;;;;;;5048952;28;20196;-67
2023/03/05 08:11:15;;;;;;;28.90;15.20;;;;;;;;;;5051747;28;20196;-67
2023/03/05 08:13:43;;;;;;;34.97;14.93;;;;;;;;;;5053574;28;20223;-67
2023/03/05 08:16:13;;;;;;;33.33;14.95;;;;;;;;;;5052752;28;20535;-67
2023/03/05 08:18:41;;;;;;;37.85;16.52;;;;;;;;;;5053524;28;20204;-67
2023/03/05 08:21:16;;;;;;;33.38;14.95;;;;;;;;;;5051681;28;20594;-67
2023/03/05 08:23:46;;;;;;;27.67;14.43;;;;;;;;;;5050880;28;20591;-67
2023/03/05 08:26:14;;;;;;;31.52;14.07;;;;;;;;;;5051740;28;20204;-68
2023/03/05 08:28:43;;;;;;;24.88;13.73;;;;;;;;;;5052560;28;20204;-67
2023/03/05 08:31:11;;;;;;;25.55;13.55;;;;;;;;;;5050553;28;20223;-67
2023/03/05 08:33:39;;;;;;;26.92;13.63;;;;;;;;;;5050538;28;20192;-67
2023/03/05 08:36:08;;;;;;;24.98;12.85;;;;;;;;;;5051275;28;20569;-67
2023/03/05 08:38:37;;;;;;;29.85;14.05;;;;;;;;;;5052128;28;20204;-68
2023/03/05 08:41:06;;;;;;;30.38;14.30;;;;;;;;;;5051377;28;20212;-67
2023/03/05 08:43:35;;;;;;;27.70;13.80;;;;;;;;;;5051931;28;20193;-68
2023/03/05 08:46:03;;;;;;;20.58;11.90;;;;;;;;;;5052583;28;20215;-67
2023/03/05 08:48:32;;;;;;;27.40;14.43;;;;;;;;;;5052004;28;20757;-67
2023/03/05 08:51:05;;;;;;;30.83;16.10;;;;;;;;;;5051275;28;20211;-69
2023/03/05 08:53:33;;;;;;;29.17;14.05;;;;;;;;;;5051533;28;20249;-67
2023/03/05 08:56:01;;;;;;;21.95;11.90;;;;;;;;;;5049562;28;20204;-69
2023/03/05 08:58:31;;;;;;;24.10;13.20;;;;;;;;;;5052404;28;20224;-68
2023/03/05 09:01:00;;;;;;;19.23;11.98;;;;;;;;;;5052222;28;20250;-68
2023/03/05 09:03:28;;;;;;;22.88;13.02;;;;;;;;;;5048305;28;20749;-66
2023/03/05 09:05:59;;;;;;;23.30;12.88;;;;;;;;;;5055007;28;20185;-67
2023/03/05 09:08:27;;;;;;;22.52;13.73;;;;;;;;;;5043479;28;20188;-67
2023/03/05 09:10:56;;;;;;;22.52;12.27;;;;;;;;;;5056724;28;20201;-66
2023/03/05 09:13:24;;;;;;;24.75;14.10;;;;;;;;;;5053733;28;20204;-66
2023/03/05 09:15:57;;;;;;;22.38;11.93;;;;;;;;;;5054507;28;20193;-66
2023/03/05 09:18:26;;;;;;;16.52;10.40;;;;;;;;;;5054384;28;20200;-66
2023/03/05 09:20:55;;;;;;;16.20;9.88;;;;;;;;;;5056788;28;20301;-66
2023/03/05 09:23:23;;;;;;;18.67;11.93;;;;;;;;;;5056220;28;20711;-66
2023/03/05 09:25:51;;;;;;;15.35;11.35;;;;;;;;;;5050449;28;20200;-66
2023/03/05 09:28:20;;;;;;;14.52;8.70;;;;;;;;;;5054800;28;20209;-66
2023/03/05 09:30:48;;;;;;;22.02;11.38;;;;;;;;;;5055732;28;20233;-65
2023/03/05 09:33:17;;;;;;;15.70;10.32;;;;;;;;;;5054026;28;20667;-65
2023/03/05 09:35:47;;;;;;;22.55;11.00;;;;;;;;;;5055675;28;20727;-65
2023/03/05 09:38:15;;;;;;;21.48;12.00;;;;;;;;;;5054400;28;20208;-66
2023/03/05 09:40:46;;;;;;;20.58;10.80;;;;;;;;;;5056002;28;20208;-65
2023/03/05 09:43:20;;;;;;;15.98;11.88;;;;;;;;;;5056271;28;20185;-65
2023/03/05 09:45:58;;;;;;;20.27;10.38;;;;;;;;;;5056755;28;20192;-65
2023/03/05 09:48:38;;;;;;;14.80;8.88;;;;;;;;;;5056037;28;20245;-65
2023/03/05 09:51:10;;;;;;;19.23;10.07;;;;;;;;;;5054413;28;20195;-65
2023/03/05 09:53:43;;;;;;;17.55;11.02;;;;;;;;;;5054802;28;20204;-65
2023/03/05 09:56:13;;;;;;;14.40;10.10;;;;;;;;;;5055490;28;20189;-65
2023/03/05 09:58:43;;;;;;;16.30;8.80;;;;;;;;;;5054894;28;20273;-65
2023/03/05 10:01:12;;;;;;;25.42;15.35;;;;;;;;;;5053539;28;20227;-65
2023/03/05 10:03:50;;;;;;;14.75;10.13;;;;;;;;;;5053784;28;20215;-65
2023/03/05 10:06:22;;;;;;;18.58;9.65;;;;;;;;;;5054206;28;20575;-66
2023/03/05 10:08:54;;;;;;;13.10;8.60;;;;;;;;;;5055059;28;20258;-65
2023/03/05 10:11:37;;;;;;;14.52;9.93;;;;;;;;;;5054317;28;20196;-65
2023/03/05 10:14:05;;;;;;;18.70;11.10;;;;;;;;;;5049940;28;20189;-66
2023/03/05 10:16:48;;;;;;;16.02;10.00;;;;;;;;;;5053864;28;20209;-65
2023/03/05 10:19:22;;;;;;;15.98;10.20;;;;;;;;;;5051547;28;20200;-65
2023/03/05 10:21:54;;;;;;;16.80;10.15;;;;;;;;;;5054175;28;20215;-65
2023/03/05 10:24:26;;;;;;;15.20;9.90;;;;;;;;;;5053971;28;20220;-65
2023/03/05 10:26:59;;;;;;;17.33;10.95;;;;;;;;;;5054489;28;20199;-66
2023/03/05 10:29:42;;;;;;;15.73;9.40;;;;;;;;;;5054350;28;20189;-66
2023/03/05 10:32:16;;;;;;;19.08;9.52;;;;;;;;;;5054406;28;20336;-66
2023/03/05 10:35:08;;;;;;;17.10;13.10;;;;;;;;;;5055135;28;20196;-66
2023/03/05 10:37:49;;;;;;;15.35;10.70;;;;;;;;;;5054680;28;20231;-66
2023/03/05 10:40:20;;;;;;;13.75;10.18;;;;;;;;;;5054508;28;20245;-66
2023/03/05 10:42:53;;;;;;;16.80;10.93;;;;;;;;;;5054064;28;20517;-66
2023/03/05 10:45:22;;;;;;;16.42;9.68;;;;;;;;;;5038098;28;20195;-65
2023/03/05 10:47:52;;;;;;;18.17;10.10;;;;;;;;;;5053878;28;20214;-65
2023/03/05 10:50:23;;;;;;;13.40;10.23;;;;;;;;;;5053989;28;20201;-65
2023/03/05 10:52:53;;;;;;;16.10;9.80;;;;;;;;;;5053167;28;20195;-66
2023/03/05 10:55:23;;;;;;;15.00;9.68;;;;;;;;;;5053855;28;20195;-66
2023/03/05 10:57:51;;;;;;;15.38;9.90;;;;;;;;;;5054065;28;20208;-67
2023/03/05 11:00:20;;;;;;;16.33;9.65;;;;;;;;;;5053935;28;20241;-66
2023/03/05 11:02:59;;;;;;;11.93;9.65;;;;;;;;;;5052208;28;20228;-66
2023/03/05 11:05:39;;;;;;;11.43;8.60;;;;;;;;;;5052444;28;20273;-66
2023/03/05 11:08:23;;;;;;;16.23;10.15;;;;;;;;;;5053386;28;20203;-66
2023/03/05 11:11:02;;;;;;;19.20;10.25;;;;;;;;;;5053659;28;20181;-67
2023/03/05 11:13:31;;;;;;;20.52;14.50;;;;;;;;;;5052586;28;20201;-66
2023/03/05 11:16:00;;;;;;;14.82;9.52;;;;;;;;;;5053353;28;20193;-66
2023/03/05 11:18:33;;;;;;;19.77;13.32;;;;;;;;;;5051340;28;20205;-66
2023/03/05 11:21:09;;;;;;;13.10;9.80;;;;;;;;;;5062236;28;20204;-66
2023/03/05 11:23:38;;;;;;;11.30;7.82;;;;;;;;;;5056112;28;20262;-66
2023/03/05 11:26:23;;;;;;;17.45;10.75;;;;;;;;;;5053127;28;20203;-66
2023/03/05 11:28:59;;;;;;;12.10;8.38;;;;;;;;;;5050840;28;20188;-66
2023/03/05 11:31:28;;;;;;;12.25;8.05;;;;;;;;;;5050745;28;20261;-70
2023/03/05 11:33:58;;;;;;;12.30;8.82;;;;;;;;;;5052996;28;20204;-67
2023/03/05 11:36:29;;;;;;;11.55;8.55;;;;;;;;;;5053255;28;20200;-67
2023/03/05 11:38:58;;;;;;;13.05;9.20;;;;;;;;;;5050137;28;20261;-66
2023/03/05 11:41:29;;;;;;;14.50;8.15;;;;;;;;;;5051515;28;20205;-66
2023/03/05 11:43:59;;;;;;;14.55;8.90;;;;;;;;;;5054120;28;20199;-66
2023/03/05 11:46:28;;;;;;;8.88;7.70;;;;;;;;;;5054481;28;20262;-66
2023/03/05 11:48:56;;;;;;;14.13;7.72;;;;;;;;;;5053605;28;20201;-66
2023/03/05 11:51:31;;;;;;;26.67;14.30;;;;;;;;;;5054984;28;20208;-66
2023/03/05 11:54:02;;;;;;;10.65;7.95;;;;;;;;;;5053169;28;20627;-67
2023/03/05 11:56:32;;;;;;;11.68;8.52;;;;;;;;;;5053978;28;20193;-66
2023/03/05 11:59:02;;;;;;;11.48;8.65;;;;;;;;;;5053339;28;20199;-66
2023/03/05 12:01:33;;;;;;;12.35;7.90;;;;;;;;;;5051758;28;20200;-66
2023/03/05 12:04:01;;;;;;;13.43;7.38;;;;;;;;;;5052040;28;20219;-65
2023/03/05 12:06:35;;;;;;;11.07;7.38;;;;;;;;;;5052865;28;20212;-64
2023/03/05 12:09:06;;;;;;;13.57;7.95;;;;;;;;;;5053591;28;20211;-66
2023/03/05 12:11:35;;;;;;;8.75;6.88;;;;;;;;;;5049493;28;20192;-66
2023/03/05 12:14:06;;;;;;;9.20;6.60;;;;;;;;;;5052259;28;20197;-66
2023/03/05 12:16:38;;;;;;;35.85;22.90;;;;;;;;;;5048089;28;20188;-66
2023/03/05 12:19:19;;;;;;;23.08;13.20;;;;;;;;;;5052910;28;20233;-65
2023/03/05 12:21:50;;;;;;;11.65;7.30;;;;;;;;;;5052964;28;20325;-65
2023/03/05 12:24:38;;;;;;;6.43;5.70;;;;;;;;;;5052316;28;20254;-65
2023/03/05 12:27:09;;;;;;;6.72;5.95;;;;;;;;;;5051100;28;20215;-66
2023/03/05 12:29:41;;;;;;;8.48;7.38;;;;;;;;;;5052406;28;20204;-65
2023/03/05 12:32:24;;;;;;;10.48;6.88;;;;;;;;;;5051905;28;20645;-66
2023/03/05 12:34:57;;;;;;;12.13;8.05;;;;;;;;;;5041293;28;20284;-66
2023/03/05 12:37:43;;;;;;;9.15;5.93;;;;;;;;;;5051960;28;20679;-66
2023/03/05 12:40:23;;;;;;;15.70;8.02;;;;;;;;;;5051726;28;20188;-66
2023/03/05 12:42:55;;;;;;;11.45;7.55;;;;;;;;;;5051124;28;20204;-66
2023/03/05 12:45:36;;;;;;;24.33;16.85;;;;;;;;;;5050593;28;20766;-66
2023/03/05 12:48:23;;;;;;;10.60;8.10;;;;;;;;;;5050528;28;20216;-66
2023/03/05 12:50:51;;;;;;;8.45;7.05;;;;;;;;;;5052536;28;20205;-66
2023/03/05 12:53:20;;;;;;;10.85;6.47;;;;;;;;;;5052176;28;20213;-66
2023/03/05 12:55:55;;;;;;;21.02;8.75;;;;;;;;;;5052827;28;20245;-67
2023/03/05 12:58:28;;;;;;;16.13;10.85;;;;;;;;;;5065696;28;20208;-66
2023/03/05 13:00:59;;;;;;;9.90;7.38;;;;;;;;;;5053429;28;20201;-69
2023/03/05 13:03:30;;;;;;;11.98;7.80;;;;;;;;;;5054845;28;20212;-66
2023/03/05 13:05:59;;;;;;;29.15;14.20;;;;;;;;;;5051945;28;20619;-66
2023/03/05 13:08:29;;;;;;;11.63;6.25;;;;;;;;;;5059262;28;20208;-66
2023/03/05 13:11:01;;;;;;;7.85;6.30;;;;;;;;;;5072175;28;20647;-66
2023/03/05 13:13:30;;;;;;;14.77;10.35;;;;;;;;;;5068709;28;20206;-66
2023/03/05 13:15:58;;;;;;;15.43;7.65;;;;;;;;;;5071680;28;20200;-66
2023/03/05 13:18:27;;;;;;;9.43;7.40;;;;;;;;;;5069839;28;20200;-65
2023/03/05 13:21:03;;;;;;;6.60;6.00;;;;;;;;;;5048622;28;20213;-65
2023/03/05 13:23:31;;;;;;;11.23;6.30;;;;;;;;;;5057175;28;20223;-66
2023/03/05 13:26:02;;;;;;;5.93;5.43;;;;;;;;;;5062676;28;20208;-66
2023/03/05 13:28:31;;;;;;;6.05;5.45;;;;;;;;;;5055232;28;20264;-66
2023/03/05 13:31:00;;;;;;;7.53;6.35;;;;;;;;;;5069996;28;20242;-65
2023/03/05 13:33:29;;;;;;;21.02;12.35;;;;;;;;;;5069734;28;20238;-68
2023/03/05 13:35:57;;;;;;;10.73;7.68;;;;;;;;;;5057553;28;20284;-69
2023/03/05 13:38:29;;;;;;;7.90;6.70;;;;;;;;;;5057661;28;20203;-69
2023/03/05 13:41:07;;;;;;;8.65;7.13;;;;;;;;;;5071541;28;20199;-70
2023/03/05 13:43:42;;;;;;;7.80;7.00;;;;;;;;;;5063921;28;20209;-71
2023/03/05 13:46:11;;;;;;;6.85;6.15;;;;;;;;;;5069666;28;20188;-70
2023/03/05 13:48:39;;;;;;;5.82;5.25;;;;;;;;;;5071611;28;20424;-69
2023/03/05 13:51:10;;;;;;;10.23;7.18;;;;;;;;;;5068337;28;20201;-69
2023/03/05 13:53:39;;;;;;;8.55;7.55;;;;;;;;;;5054778;28;20223;-70
2023/03/05 13:56:15;;;;;;;6.13;5.63;;;;;;;;;;5075229;28;20594;-69
2023/03/05 13:58:48;;;;;;;8.68;6.93;;;;;;;;;;5073862;28;20256;-70
2023/03/05 14:01:21;;;;;;;8.50;6.45;;;;;;;;;;5074898;28;20214;-69
2023/03/05 14:03:51;;;;;;;6.70;6.00;;;;;;;;;;5073482;28;20695;-68
2023/03/05 14:06:20;;;;;;;7.20;5.40;;;;;;;;;;5074807;28;20211;-69
2023/03/05 14:08:53;;;;;;;7.35;6.05;;;;;;;;;;5073305;28;20651;-69
2023/03/05 14:11:22;;;;;;;9.43;6.65;;;;;;;;;;5065328;28;20200;-69
2023/03/05 14:13:59;;;;;;;6.03;5.43;;;;;;;;;;5053530;28;20687;-68
2023/03/05 14:16:31;;;;;;;7.43;5.60;;;;;;;;;;5054820;28;20641;-69
2023/03/05 14:19:00;;;;;;;6.90;5.97;;;;;;;;;;5052657;28;20558;-68
2023/03/05 14:21:43;;;;;;;8.45;6.05;;;;;;;;;;5054639;28;20559;-69
2023/03/05 14:24:16;;;;;;;9.68;6.85;;;;;;;;;;5052357;28;20600;-68
2023/03/05 14:26:49;;;;;;;9.73;7.35;;;;;;;;;;5054738;28;20807;-68
2023/03/05 14:29:19;;;;;;;17.38;10.75;;;;;;;;;;5053671;28;20277;-68
2023/03/05 14:31:49;;;;;;;10.60;8.07;;;;;;;;;;5053997;28;20247;-69
2023/03/05 14:34:21;;;;;;;10.25;6.53;;;;;;;;;;5053884;28;20209;-68
2023/03/05 14:36:50;;;;;;;7.63;5.88;;;;;;;;;;5053709;28;20205;-67